Terminal Aerodrome Forecast
Issued by NWS

Home | Current Version | Previous Version | Text Only | Print | Product List | Glossary On
Versions: 1 2 3 4 5 6 7 8 9 10 11 12 13 14 15 16 17 18 19 20 21
000
FTUS46 KSEW 291120
TAFCLM
TAF
KCLM 291120Z 2912/3012 28009KT P6SM BKN015 OVC030
     FM291600 29009KT P6SM BKN025 OVC035
     FM291800 32012KT P6SM SCT030 BKN050
     FM292100 30012G20KT P6SM SCT030 SCT050
     FM300800 27008KT P6SM SCT050=

USA.gov is the U.S. government's official web portal to all federal, state and local government web resources and services.